Time;durP1;ratioP1;P1;durP2;ratioP2;P2;SDS_P1;SDS_P2;PMS_P1;PMS_P2;Temp;Humidity;BMP_temperature;BMP_pressure;BME280_temperature;BME280_humidity;BME280_pressure;Samples;Min_cycle;Max_cycle;Signal;HPM_P1;HPM_P2
2021/04/08 00:00:07;;;;;;;20.73;19.42;;;;;;;;;;5094578;28;20652;-72
2021/04/08 00:02:35;;;;;;;20.10;18.77;;;;;;;;;;5094505;28;20234;-72
2021/04/08 00:05:02;;;;;;;20.15;18.90;;;;;;;;;;5094750;28;20190;-72
2021/04/08 00:07:29;;;;;;;20.83;19.52;;;;;;;;;;5094406;28;20604;-73
2021/04/08 00:09:56;;;;;;;20.85;19.55;;;;;;;;;;5094617;28;20242;-72
2021/04/08 00:12:23;;;;;;;21.15;19.73;;;;;;;;;;5094440;28;20188;-72
2021/04/08 00:14:50;;;;;;;21.17;19.50;;;;;;;;;;5094497;28;20193;-73
2021/04/08 00:17:17;;;;;;;20.38;19.17;;;;;;;;;;5094327;28;20192;-73
2021/04/08 00:19:45;;;;;;;21.08;19.55;;;;;;;;;;5094376;28;20797;-73
2021/04/08 00:22:12;;;;;;;21.20;19.88;;;;;;;;;;5094076;28;20191;-72
2021/04/08 00:24:38;;;;;;;23.20;19.80;;;;;;;;;;5094367;28;20183;-73
2021/04/08 00:27:06;;;;;;;20.25;19.15;;;;;;;;;;5093912;28;20195;-72
2021/04/08 00:29:32;;;;;;;21.27;19.92;;;;;;;;;;5093874;28;20228;-73
2021/04/08 00:32:00;;;;;;;21.73;20.25;;;;;;;;;;5093936;28;20187;-72
2021/04/08 00:34:26;;;;;;;22.25;20.75;;;;;;;;;;5093947;28;20191;-73
2021/04/08 00:36:54;;;;;;;21.50;20.20;;;;;;;;;;5094216;28;20588;-72
2021/04/08 00:39:21;;;;;;;20.70;19.30;;;;;;;;;;5094204;28;20194;-72
2021/04/08 00:41:48;;;;;;;21.27;19.52;;;;;;;;;;5093745;28;20518;-73
2021/04/08 00:44:15;;;;;;;22.52;20.98;;;;;;;;;;5093820;28;20294;-73
2021/04/08 00:46:42;;;;;;;24.52;22.33;;;;;;;;;;5093771;28;20233;-72
2021/04/08 00:49:09;;;;;;;23.25;21.73;;;;;;;;;;5093984;28;20225;-73
2021/04/08 00:51:36;;;;;;;21.75;20.35;;;;;;;;;;5094320;28;20215;-73
2021/04/08 00:54:04;;;;;;;24.13;22.13;;;;;;;;;;5093429;28;20227;-73
2021/04/08 00:56:31;;;;;;;22.58;20.98;;;;;;;;;;5093562;28;20548;-73
2021/04/08 00:58:59;;;;;;;23.25;21.55;;;;;;;;;;5093339;28;20203;-73
2021/04/08 01:01:26;;;;;;;22.83;20.73;;;;;;;;;;5093467;28;20587;-73
2021/04/08 01:03:53;;;;;;;20.77;19.38;;;;;;;;;;5094489;28;20211;-73
2021/04/08 01:06:19;;;;;;;21.52;20.00;;;;;;;;;;5093872;28;20187;-72
2021/04/08 01:08:46;;;;;;;22.75;21.10;;;;;;;;;;5093433;28;20223;-72
2021/04/08 01:11:14;;;;;;;21.55;20.20;;;;;;;;;;5093834;28;20198;-73
2021/04/08 01:13:42;;;;;;;21.15;19.85;;;;;;;;;;5093800;28;20188;-72
2021/04/08 01:16:12;;;;;;;21.95;20.17;;;;;;;;;;5092604;28;20187;-72
2021/04/08 01:18:44;;;;;;;21.08;19.45;;;;;;;;;;5093709;28;20585;-72
2021/04/08 01:21:13;;;;;;;23.20;21.55;;;;;;;;;;5093669;28;20185;-72
2021/04/08 01:23:59;;;;;;;21.40;20.05;;;;;;;;;;5092426;28;20289;-72
2021/04/08 01:26:40;;;;;;;21.98;20.50;;;;;;;;;;5093250;28;20553;-73
2021/04/08 01:29:09;;;;;;;22.55;20.88;;;;;;;;;;5093352;28;20235;-72
2021/04/08 01:31:38;;;;;;;23.15;21.58;;;;;;;;;;5093531;28;20187;-72
2021/04/08 01:34:06;;;;;;;23.45;21.40;;;;;;;;;;5093571;28;20187;-73
2021/04/08 01:36:34;;;;;;;22.58;20.60;;;;;;;;;;5093583;28;20192;-72
2021/04/08 01:39:02;;;;;;;22.50;20.80;;;;;;;;;;5093571;28;20683;-72
2021/04/08 01:41:30;;;;;;;23.35;21.52;;;;;;;;;;5093174;28;20706;-73
2021/04/08 01:43:58;;;;;;;22.40;20.65;;;;;;;;;;5093121;28;20189;-72
2021/04/08 01:46:25;;;;;;;21.45;19.67;;;;;;;;;;5093210;28;20203;-72
2021/04/08 01:48:54;;;;;;;21.95;20.15;;;;;;;;;;5093392;28;20269;-72
2021/04/08 01:51:22;;;;;;;21.88;20.38;;;;;;;;;;5093345;28;20187;-72
2021/04/08 01:53:50;;;;;;;21.33;19.65;;;;;;;;;;5091699;28;20750;-73
2021/04/08 01:56:19;;;;;;;22.85;21.30;;;;;;;;;;5093239;28;20184;-72
2021/04/08 01:58:46;;;;;;;22.15;20.45;;;;;;;;;;5093216;28;20219;-72
2021/04/08 02:01:13;;;;;;;20.17;18.98;;;;;;;;;;5093264;28;20183;-72
2021/04/08 02:03:42;;;;;;;22.73;20.77;;;;;;;;;;5093320;28;20222;-73
2021/04/08 02:06:10;;;;;;;21.63;20.08;;;;;;;;;;5093310;28;20196;-72
2021/04/08 02:08:38;;;;;;;22.10;20.42;;;;;;;;;;5092683;28;20218;-72
2021/04/08 02:11:05;;;;;;;23.77;21.75;;;;;;;;;;5096671;28;20206;-72
2021/04/08 02:13:32;;;;;;;21.00;19.55;;;;;;;;;;5096866;28;20528;-73
2021/04/08 02:16:00;;;;;;;20.50;19.15;;;;;;;;;;5096842;28;20194;-72
2021/04/08 02:18:27;;;;;;;21.75;19.92;;;;;;;;;;5096467;28;20213;-73
2021/04/08 02:20:54;;;;;;;21.52;20.02;;;;;;;;;;5095615;28;20188;-72
2021/04/08 02:23:24;;;;;;;22.38;20.98;;;;;;;;;;5096392;28;20187;-72
2021/04/08 02:25:51;;;;;;;22.70;20.75;;;;;;;;;;5095474;28;20199;-72
2021/04/08 02:28:20;;;;;;;22.20;20.40;;;;;;;;;;5096391;28;20230;-72
2021/04/08 02:30:48;;;;;;;23.17;21.10;;;;;;;;;;5096609;28;20191;-72
2021/04/08 02:33:21;;;;;;;21.15;19.70;;;;;;;;;;5096567;28;20525;-73
2021/04/08 02:35:48;;;;;;;21.13;19.80;;;;;;;;;;5096475;28;20184;-72
2021/04/08 02:38:15;;;;;;;23.10;21.15;;;;;;;;;;5096095;28;20198;-72
2021/04/08 02:40:42;;;;;;;21.58;20.08;;;;;;;;;;5096367;28;20188;-72
2021/04/08 02:43:10;;;;;;;21.58;19.90;;;;;;;;;;5096027;28;20551;-72
2021/04/08 02:45:37;;;;;;;22.00;20.35;;;;;;;;;;5096000;28;20242;-73
2021/04/08 02:48:06;;;;;;;26.38;23.58;;;;;;;;;;5096207;28;20192;-72
2021/04/08 02:50:33;;;;;;;21.73;20.17;;;;;;;;;;5094870;28;20616;-72
2021/04/08 02:53:05;;;;;;;22.27;20.55;;;;;;;;;;5095840;28;20199;-72
2021/04/08 02:55:35;;;;;;;21.10;19.90;;;;;;;;;;5095745;28;20624;-72
2021/04/08 02:58:05;;;;;;;21.50;20.10;;;;;;;;;;5095626;28;20187;-72
2021/04/08 03:00:33;;;;;;;20.90;19.50;;;;;;;;;;5095686;28;20188;-72
2021/04/08 03:03:02;;;;;;;21.30;20.05;;;;;;;;;;5095889;28;20183;-73
2021/04/08 03:05:29;;;;;;;22.27;20.40;;;;;;;;;;5095859;28;20196;-72
2021/04/08 03:07:57;;;;;;;20.92;19.58;;;;;;;;;;5095918;28;20244;-73
2021/04/08 03:10:24;;;;;;;21.45;19.75;;;;;;;;;;5095741;28;20212;-72
2021/04/08 03:12:52;;;;;;;21.08;19.67;;;;;;;;;;5095788;28;20255;-72
2021/04/08 03:15:22;;;;;;;22.27;20.20;;;;;;;;;;5095463;28;20529;-73
2021/04/08 03:17:50;;;;;;;22.40;20.58;;;;;;;;;;5095655;28;20187;-72
2021/04/08 03:20:17;;;;;;;22.92;21.10;;;;;;;;;;5095386;28;20183;-72
2021/04/08 03:22:45;;;;;;;22.85;21.25;;;;;;;;;;5095232;28;20638;-73
2021/04/08 03:25:12;;;;;;;21.70;20.20;;;;;;;;;;5095305;28;20183;-73
2021/04/08 03:27:40;;;;;;;22.50;20.90;;;;;;;;;;5095057;28;20219;-73
2021/04/08 03:30:10;;;;;;;22.52;20.58;;;;;;;;;;5095372;28;20749;-73
2021/04/08 03:32:38;;;;;;;23.13;21.52;;;;;;;;;;5095284;28;20202;-72
2021/04/08 03:35:06;;;;;;;22.30;20.42;;;;;;;;;;5094992;28;20188;-73
2021/04/08 03:37:33;;;;;;;22.75;20.50;;;;;;;;;;5094933;28;20190;-72
2021/04/08 03:40:00;;;;;;;20.80;19.38;;;;;;;;;;5094855;28;20183;-72
2021/04/08 03:42:28;;;;;;;22.55;20.85;;;;;;;;;;5094862;28;20530;-73
2021/04/08 03:44:54;;;;;;;23.17;21.60;;;;;;;;;;5095096;28;20245;-73
2021/04/08 03:47:22;;;;;;;23.25;21.60;;;;;;;;;;5094855;28;20191;-73
2021/04/08 03:49:51;;;;;;;22.63;21.20;;;;;;;;;;5094678;28;20214;-72
2021/04/08 03:52:19;;;;;;;23.23;21.63;;;;;;;;;;5094947;28;20219;-73
2021/04/08 03:54:48;;;;;;;23.27;21.55;;;;;;;;;;5094590;28;20228;-73
2021/04/08 03:57:17;;;;;;;23.98;22.02;;;;;;;;;;5094743;28;20195;-72
2021/04/08 03:59:44;;;;;;;21.83;20.27;;;;;;;;;;5094939;28;20188;-73
2021/04/08 04:02:12;;;;;;;26.33;24.15;;;;;;;;;;5094675;28;20605;-73
2021/04/08 04:04:40;;;;;;;24.45;22.42;;;;;;;;;;5095632;28;20501;-72
2021/04/08 04:07:08;;;;;;;24.13;22.33;;;;;;;;;;5094713;28;20195;-72
2021/04/08 04:09:36;;;;;;;24.63;22.73;;;;;;;;;;5094569;28;20234;-73
2021/04/08 04:12:03;;;;;;;23.23;21.63;;;;;;;;;;5094291;28;20198;-73
2021/04/08 04:14:31;;;;;;;25.33;23.33;;;;;;;;;;5094228;28;20188;-72
2021/04/08 04:16:58;;;;;;;24.98;23.38;;;;;;;;;;5094595;28;20531;-72
2021/04/08 04:19:25;;;;;;;25.80;23.23;;;;;;;;;;5094482;28;20183;-73
2021/04/08 04:21:52;;;;;;;25.75;23.90;;;;;;;;;;5094416;28;20236;-73
2021/04/08 04:24:20;;;;;;;27.25;24.95;;;;;;;;;;5093108;28;20202;-72
2021/04/08 04:26:47;;;;;;;26.20;24.17;;;;;;;;;;5092895;28;20252;-73
2021/04/08 04:29:15;;;;;;;25.88;23.40;;;;;;;;;;5094227;28;20231;-73
2021/04/08 04:31:41;;;;;;;24.30;22.50;;;;;;;;;;5093665;28;20191;-72
2021/04/08 04:34:08;;;;;;;27.10;24.92;;;;;;;;;;5094368;28;20700;-73
2021/04/08 04:36:36;;;;;;;26.00;23.85;;;;;;;;;;5094158;28;20206;-73
2021/04/08 04:39:04;;;;;;;24.77;23.05;;;;;;;;;;5094163;28;20519;-72
2021/04/08 04:41:32;;;;;;;26.20;24.20;;;;;;;;;;5094080;28;20192;-73
2021/04/08 04:43:59;;;;;;;26.67;23.85;;;;;;;;;;5092642;28;20194;-72
2021/04/08 04:46:26;;;;;;;24.40;22.58;;;;;;;;;;5093872;28;20251;-72
2021/04/08 04:48:52;;;;;;;26.38;23.83;;;;;;;;;;5093723;28;20207;-72
2021/04/08 04:51:19;;;;;;;25.85;23.95;;;;;;;;;;5093934;28;20244;-72
2021/04/08 04:53:47;;;;;;;26.80;24.60;;;;;;;;;;5093542;28;20226;-72
2021/04/08 04:56:13;;;;;;;25.60;23.77;;;;;;;;;;5093778;28;20191;-73
2021/04/08 04:58:41;;;;;;;26.00;24.08;;;;;;;;;;5093904;28;20183;-72
2021/04/08 05:01:08;;;;;;;25.85;23.80;;;;;;;;;;5093859;28;20197;-72
2021/04/08 05:03:35;;;;;;;25.92;23.88;;;;;;;;;;5093616;28;20529;-72
2021/04/08 05:06:02;;;;;;;25.17;23.23;;;;;;;;;;5093867;28;20183;-72
2021/04/08 05:08:29;;;;;;;25.40;23.13;;;;;;;;;;5093805;28;20190;-72
2021/04/08 05:10:56;;;;;;;26.35;24.35;;;;;;;;;;5093812;28;20192;-72
2021/04/08 05:13:23;;;;;;;27.10;24.85;;;;;;;;;;5093439;28;20190;-72
2021/04/08 05:15:50;;;;;;;26.90;24.67;;;;;;;;;;5093444;28;20194;-72
2021/04/08 05:18:17;;;;;;;35.50;24.35;;;;;;;;;;5093758;28;20256;-72
2021/04/08 05:20:44;;;;;;;26.08;23.58;;;;;;;;;;5092164;28;20717;-73
2021/04/08 05:23:11;;;;;;;25.90;23.92;;;;;;;;;;5093646;28;20209;-72
2021/04/08 05:25:38;;;;;;;27.27;24.80;;;;;;;;;;5093629;28;20596;-72
2021/04/08 05:28:04;;;;;;;26.25;24.23;;;;;;;;;;5093343;28;20218;-73
2021/04/08 05:30:31;;;;;;;25.33;23.40;;;;;;;;;;5093271;28;20222;-73
2021/04/08 05:32:59;;;;;;;26.15;23.55;;;;;;;;;;5093194;28;20187;-73
2021/04/08 05:35:26;;;;;;;26.67;24.30;;;;;;;;;;5093339;28;20249;-72
2021/04/08 05:37:53;;;;;;;26.73;24.23;;;;;;;;;;5093325;28;20194;-73
2021/04/08 05:40:20;;;;;;;25.02;23.25;;;;;;;;;;5093554;28;20544;-73
2021/04/08 05:42:47;;;;;;;26.50;24.00;;;;;;;;;;5093168;28;20277;-72
2021/04/08 05:45:16;;;;;;;26.50;24.30;;;;;;;;;;5097169;28;20238;-72
2021/04/08 05:47:43;;;;;;;24.33;22.58;;;;;;;;;;5097423;28;20186;-72
2021/04/08 05:50:11;;;;;;;25.70;23.35;;;;;;;;;;5097294;28;20215;-73
2021/04/08 05:52:38;;;;;;;21.92;20.58;;;;;;;;;;5097061;28;20183;-73
2021/04/08 05:55:06;;;;;;;25.20;23.20;;;;;;;;;;5096924;28;20227;-72
2021/04/08 05:57:33;;;;;;;25.42;23.45;;;;;;;;;;5097078;28;20191;-72
2021/04/08 06:00:00;;;;;;;26.77;24.00;;;;;;;;;;5097214;28;20543;-72
2021/04/08 06:02:27;;;;;;;22.02;20.65;;;;;;;;;;5096775;28;20198;-73
2021/04/08 06:04:54;;;;;;;26.38;23.95;;;;;;;;;;5097353;28;20199;-72
2021/04/08 06:07:22;;;;;;;26.50;23.98;;;;;;;;;;5097031;28;20188;-78
2021/04/08 06:09:48;;;;;;;26.98;24.55;;;;;;;;;;5096887;28;20211;-73
2021/04/08 06:12:15;;;;;;;29.02;26.63;;;;;;;;;;5096404;28;20641;-72
2021/04/08 06:14:43;;;;;;;25.10;23.10;;;;;;;;;;5096866;28;20274;-72
2021/04/08 06:17:10;;;;;;;25.25;23.27;;;;;;;;;;5096336;28;20550;-73
2021/04/08 06:19:36;;;;;;;24.13;22.33;;;;;;;;;;5096679;28;20203;-72
2021/04/08 06:22:04;;;;;;;27.63;25.25;;;;;;;;;;5096604;28;20191;-72
2021/04/08 06:24:32;;;;;;;24.27;22.20;;;;;;;;;;5096648;28;20192;-72
2021/04/08 06:26:58;;;;;;;27.05;25.05;;;;;;;;;;5096443;28;20183;-72
2021/04/08 06:29:25;;;;;;;24.80;22.63;;;;;;;;;;5094876;28;20677;-72
2021/04/08 06:31:53;;;;;;;23.98;22.20;;;;;;;;;;5096279;28;20517;-82
2021/04/08 06:34:20;;;;;;;22.73;21.35;;;;;;;;;;5096446;28;20238;-72
2021/04/08 06:36:47;;;;;;;26.33;23.98;;;;;;;;;;5096442;28;20188;-73
2021/04/08 06:39:14;;;;;;;23.20;21.27;;;;;;;;;;5096178;28;20693;-72
2021/04/08 06:41:42;;;;;;;23.73;21.80;;;;;;;;;;5096351;28;20197;-72
2021/04/08 06:44:10;;;;;;;22.17;20.77;;;;;;;;;;5096316;28;20191;-72
2021/04/08 06:46:38;;;;;;;26.10;23.92;;;;;;;;;;5095951;28;20196;-72
2021/04/08 06:49:09;;;;;;;24.35;22.65;;;;;;;;;;5095680;28;20214;-72
2021/04/08 06:51:37;;;;;;;26.25;24.13;;;;;;;;;;5096095;28;20596;-73
2021/04/08 06:54:07;;;;;;;23.17;21.48;;;;;;;;;;5095086;28;20234;-72
2021/04/08 06:56:35;;;;;;;28.88;26.20;;;;;;;;;;5095743;28;20192;-72
2021/04/08 06:59:04;;;;;;;25.65;23.85;;;;;;;;;;5095996;28;20191;-72
2021/04/08 07:01:32;;;;;;;27.08;24.60;;;;;;;;;;5095984;28;20191;-72
2021/04/08 07:03:59;;;;;;;24.73;22.85;;;;;;;;;;5095959;28;20257;-72
2021/04/08 07:06:26;;;;;;;24.98;23.15;;;;;;;;;;5095916;28;20195;-73
2021/04/08 07:08:53;;;;;;;26.75;24.65;;;;;;;;;;5095804;28;20191;-72
2021/04/08 07:11:19;;;;;;;25.75;23.88;;;;;;;;;;5095747;28;20589;-72
2021/04/08 07:13:47;;;;;;;26.55;24.05;;;;;;;;;;5095483;28;20242;-72
2021/04/08 07:16:20;;;;;;;25.80;24.05;;;;;;;;;;5094638;28;20197;-72
2021/04/08 07:18:48;;;;;;;26.35;24.15;;;;;;;;;;5094424;28;20203;-72
2021/04/08 07:21:16;;;;;;;27.73;25.33;;;;;;;;;;5095534;28;20195;-72
2021/04/08 07:24:07;;;;;;;26.65;24.50;;;;;;;;;;5095219;28;20190;-72
2021/04/08 07:26:49;;;;;;;27.27;24.95;;;;;;;;;;5095372;28;20226;-72
2021/04/08 07:29:16;;;;;;;25.92;24.23;;;;;;;;;;5093768;28;20231;-72
2021/04/08 07:31:44;;;;;;;24.27;22.52;;;;;;;;;;5095017;28;20241;-73
2021/04/08 07:34:11;;;;;;;26.33;24.25;;;;;;;;;;5095079;28;20192;-72
2021/04/08 07:36:39;;;;;;;25.83;23.92;;;;;;;;;;5095023;28;20189;-73
2021/04/08 07:39:06;;;;;;;24.70;22.88;;;;;;;;;;5095251;28;20241;-72
2021/04/08 07:41:34;;;;;;;25.17;23.48;;;;;;;;;;5094839;28;20187;-72
2021/04/08 07:44:02;;;;;;;26.10;23.90;;;;;;;;;;5093711;28;20192;-72
2021/04/08 07:46:33;;;;;;;25.58;23.55;;;;;;;;;;5094852;28;20192;-72
2021/04/08 07:49:01;;;;;;;25.67;23.63;;;;;;;;;;5095436;28;20203;-72
2021/04/08 07:51:29;;;;;;;24.20;22.52;;;;;;;;;;5095048;28;20193;-72
2021/04/08 07:54:14;;;;;;;23.98;22.48;;;;;;;;;;5094843;28;20227;-72
2021/04/08 07:56:41;;;;;;;23.42;21.90;;;;;;;;;;5094827;28;20193;-72
2021/04/08 07:59:24;;;;;;;24.95;23.10;;;;;;;;;;5094853;28;20183;-72
2021/04/08 08:01:52;;;;;;;25.17;23.55;;;;;;;;;;5094362;28;20195;-72
2021/04/08 08:04:22;;;;;;;26.65;24.25;;;;;;;;;;5094389;28;20199;-72
2021/04/08 08:06:48;;;;;;;26.33;23.98;;;;;;;;;;5093613;28;20608;-72
2021/04/08 08:09:19;;;;;;;25.55;22.40;;;;;;;;;;5094091;28;20619;-71
2021/04/08 08:11:46;;;;;;;25.27;23.55;;;;;;;;;;5094395;28;20727;-73
2021/04/08 08:14:13;;;;;;;22.83;21.45;;;;;;;;;;5094617;28;20185;-72
2021/04/08 08:16:40;;;;;;;24.35;22.75;;;;;;;;;;5094547;28;20184;-71
2021/04/08 08:19:06;;;;;;;23.73;22.17;;;;;;;;;;5094170;28;20208;-71
2021/04/08 08:21:36;;;;;;;23.80;22.20;;;;;;;;;;5094387;28;20189;-72
2021/04/08 08:24:07;;;;;;;25.05;23.25;;;;;;;;;;5094502;28;20247;-72
2021/04/08 08:26:34;;;;;;;22.88;21.35;;;;;;;;;;5094260;28;20212;-72
2021/04/08 08:29:03;;;;;;;23.27;21.50;;;;;;;;;;5093880;28;20701;-72
2021/04/08 08:31:36;;;;;;;22.98;21.42;;;;;;;;;;5094234;28;20633;-72
2021/04/08 08:34:08;;;;;;;23.38;21.80;;;;;;;;;;5094319;28;20529;-73
2021/04/08 08:36:37;;;;;;;24.60;22.70;;;;;;;;;;5093880;28;20197;-72
2021/04/08 08:39:05;;;;;;;24.73;22.63;;;;;;;;;;5094197;28;20214;-72
2021/04/08 08:41:32;;;;;;;25.92;23.65;;;;;;;;;;5093834;28;20187;-72
2021/04/08 08:43:59;;;;;;;25.35;23.42;;;;;;;;;;5094150;28;20219;-72
2021/04/08 08:46:26;;;;;;;24.52;22.75;;;;;;;;;;5093817;28;20200;-72
2021/04/08 08:48:54;;;;;;;24.55;22.73;;;;;;;;;;5093660;28;20188;-71
2021/04/08 08:51:21;;;;;;;23.85;22.08;;;;;;;;;;5094075;28;20227;-72
2021/04/08 08:53:50;;;;;;;24.65;22.48;;;;;;;;;;5093382;28;20227;-72
2021/04/08 08:56:19;;;;;;;22.95;21.42;;;;;;;;;;5093824;28;20231;-72
2021/04/08 08:58:46;;;;;;;24.42;22.33;;;;;;;;;;5093941;28;20209;-72
2021/04/08 09:01:14;;;;;;;23.30;21.80;;;;;;;;;;5094444;28;20200;-72
2021/04/08 09:03:41;;;;;;;22.63;21.00;;;;;;;;;;5093935;28;20205;-73
2021/04/08 09:06:08;;;;;;;24.98;22.50;;;;;;;;;;5093796;28;20188;-72
2021/04/08 09:08:37;;;;;;;24.33;22.17;;;;;;;;;;5093497;28;20210;-73
2021/04/08 09:11:04;;;;;;;31.98;22.40;;;;;;;;;;5093707;28;20220;-72
2021/04/08 09:13:32;;;;;;;24.08;22.30;;;;;;;;;;5093796;28;20197;-72
2021/04/08 09:16:00;;;;;;;24.40;22.60;;;;;;;;;;5093813;28;20571;-72
2021/04/08 09:18:27;;;;;;;22.88;21.30;;;;;;;;;;5096302;28;20265;-73
2021/04/08 09:20:54;;;;;;;24.27;22.30;;;;;;;;;;5097603;28;20188;-72
2021/04/08 09:23:22;;;;;;;23.90;22.10;;;;;;;;;;5097654;28;20193;-72
2021/04/08 09:25:53;;;;;;;26.92;24.48;;;;;;;;;;5097861;28;20244;-73
2021/04/08 09:28:21;;;;;;;23.10;21.40;;;;;;;;;;5097796;28;20303;-73
2021/04/08 09:30:57;;;;;;;23.00;21.60;;;;;;;;;;5097330;28;20288;-73
2021/04/08 09:33:43;;;;;;;22.55;20.80;;;;;;;;;;5097103;28;20214;-72
2021/04/08 09:36:25;;;;;;;22.63;21.13;;;;;;;;;;5097680;28;20219;-73
2021/04/08 09:38:52;;;;;;;22.60;21.20;;;;;;;;;;5097468;28;20211;-72
2021/04/08 09:41:19;;;;;;;21.80;20.40;;;;;;;;;;5097561;28;20194;-72
2021/04/08 09:43:47;;;;;;;23.70;22.00;;;;;;;;;;5098029;28;20187;-74
2021/04/08 09:46:15;;;;;;;23.33;21.85;;;;;;;;;;5095149;28;20204;-77
2021/04/08 09:48:49;;;;;;;23.17;21.17;;;;;;;;;;5097756;28;20201;-78
2021/04/08 09:51:26;;;;;;;22.88;21.42;;;;;;;;;;5097142;28;20712;-78
2021/04/08 09:54:00;;;;;;;22.40;21.00;;;;;;;;;;5096282;28;20285;-72
2021/04/08 09:56:55;;;;;;;23.00;21.35;;;;;;;;;;5097149;28;20222;-71
2021/04/08 09:59:23;;;;;;;26.48;23.75;;;;;;;;;;5034745;28;20673;-72
2021/04/08 10:01:51;;;;;;;22.90;21.48;;;;;;;;;;5034495;28;20195;-72
2021/04/08 10:04:21;;;;;;;23.55;21.95;;;;;;;;;;5034531;28;20216;-71
2021/04/08 10:06:48;;;;;;;24.17;22.67;;;;;;;;;;5034580;28;20190;-72
2021/04/08 10:09:16;;;;;;;25.13;23.50;;;;;;;;;;5034499;28;20208;-72
2021/04/08 10:11:43;;;;;;;26.13;24.42;;;;;;;;;;5034370;28;20207;-72
2021/04/08 10:14:19;;;;;;;26.50;24.50;;;;;;;;;;5034425;28;20677;-72
2021/04/08 10:16:59;;;;;;;23.63;22.13;;;;;;;;;;5034490;28;20203;-72
2021/04/08 10:19:29;;;;;;;26.05;24.20;;;;;;;;;;5034333;28;20186;-72
2021/04/08 10:21:56;;;;;;;26.55;24.45;;;;;;;;;;5034256;28;20203;-72
2021/04/08 10:24:23;;;;;;;25.00;23.40;;;;;;;;;;5034143;28;20241;-72
2021/04/08 10:26:50;;;;;;;27.35;25.45;;;;;;;;;;5033926;28;20210;-72
2021/04/08 10:29:30;;;;;;;26.50;24.65;;;;;;;;;;5033254;28;20234;-72
2021/04/08 10:31:58;;;;;;;27.30;25.15;;;;;;;;;;5034028;28;20651;-73
2021/04/08 10:34:33;;;;;;;25.67;23.88;;;;;;;;;;5050184;28;20638;-75
2021/04/08 10:37:00;;;;;;;24.27;22.58;;;;;;;;;;5096510;28;20195;-72
2021/04/08 10:39:28;;;;;;;23.85;22.13;;;;;;;;;;5096116;28;20198;-72
2021/04/08 10:42:01;;;;;;;24.13;22.25;;;;;;;;;;5096443;28;20194;-74
2021/04/08 10:44:30;;;;;;;24.40;22.75;;;;;;;;;;5096383;28;20188;-75
2021/04/08 10:47:00;;;;;;;25.02;23.42;;;;;;;;;;5097132;28;20600;-74
2021/04/08 10:49:27;;;;;;;24.10;22.65;;;;;;;;;;5095984;28;20227;-74
2021/04/08 10:51:55;;;;;;;24.85;23.38;;;;;;;;;;5096180;28;20200;-74
2021/04/08 10:54:26;;;;;;;24.98;23.52;;;;;;;;;;5094593;28;20229;-74
2021/04/08 10:56:53;;;;;;;24.25;22.75;;;;;;;;;;5096053;28;20191;-74
2021/04/08 10:59:21;;;;;;;23.38;21.98;;;;;;;;;;5096090;28;20193;-73
2021/04/08 11:01:48;;;;;;;25.55;23.63;;;;;;;;;;5094756;28;20700;-74
2021/04/08 11:04:17;;;;;;;25.30;23.50;;;;;;;;;;5094758;28;20664;-74
2021/04/08 11:06:43;;;;;;;23.15;21.75;;;;;;;;;;5095716;28;20189;-74
2021/04/08 11:09:11;;;;;;;24.57;22.97;;;;;;;;;;5095461;28;20189;-74
2021/04/08 11:11:37;;;;;;;26.65;24.85;;;;;;;;;;5095730;28;20757;-74
2021/04/08 11:14:04;;;;;;;26.90;25.00;;;;;;;;;;5095801;28;20213;-74
2021/04/08 11:16:32;;;;;;;24.73;23.23;;;;;;;;;;5095738;28;20185;-74
2021/04/08 11:19:02;;;;;;;25.63;24.05;;;;;;;;;;5095385;28;20197;-74
2021/04/08 11:21:30;;;;;;;24.73;23.13;;;;;;;;;;5095287;28;20197;-74
2021/04/08 11:23:57;;;;;;;26.50;24.30;;;;;;;;;;5095749;28;20644;-74
2021/04/08 11:26:24;;;;;;;26.98;24.83;;;;;;;;;;5095361;28;20187;-73
2021/04/08 11:28:54;;;;;;;25.00;23.50;;;;;;;;;;5095448;28;20225;-74
2021/04/08 11:31:22;;;;;;;26.27;24.53;;;;;;;;;;5095342;28;20221;-74
2021/04/08 11:33:55;;;;;;;24.50;22.85;;;;;;;;;;5095770;28;20704;-75
2021/04/08 11:36:23;;;;;;;26.88;24.75;;;;;;;;;;5095612;28;20636;-74
2021/04/08 11:38:51;;;;;;;24.80;23.05;;;;;;;;;;5095365;28;20185;-74
2021/04/08 11:41:18;;;;;;;24.50;22.73;;;;;;;;;;5095271;28;20215;-75
2021/04/08 11:43:47;;;;;;;24.48;22.63;;;;;;;;;;5094546;28;20201;-74
2021/04/08 11:46:25;;;;;;;26.00;24.10;;;;;;;;;;5095219;28;20200;-74
2021/04/08 11:48:51;;;;;;;25.05;23.10;;;;;;;;;;5095127;28;20189;-74
2021/04/08 11:51:20;;;;;;;25.80;23.90;;;;;;;;;;5095015;28;20219;-74
2021/04/08 11:53:48;;;;;;;27.05;25.02;;;;;;;;;;5094580;28;20949;-74
2021/04/08 11:56:26;;;;;;;25.80;24.17;;;;;;;;;;5094534;28;20196;-74
2021/04/08 11:58:53;;;;;;;26.73;24.92;;;;;;;;;;5094743;28;20235;-73
2021/04/08 12:01:20;;;;;;;26.02;24.30;;;;;;;;;;5094779;28;20189;-74
2021/04/08 12:03:48;;;;;;;26.88;24.88;;;;;;;;;;5094622;28;20228;-74
2021/04/08 12:06:15;;;;;;;25.65;24.05;;;;;;;;;;5094752;28;20646;-74
2021/04/08 12:08:43;;;;;;;27.10;25.50;;;;;;;;;;5094453;28;20220;-74
2021/04/08 12:11:10;;;;;;;26.42;24.42;;;;;;;;;;5094316;28;20219;-74
2021/04/08 12:13:40;;;;;;;26.52;24.73;;;;;;;;;;5094492;28;20192;-76
2021/04/08 12:16:08;;;;;;;26.73;25.02;;;;;;;;;;5093334;28;20205;-74
2021/04/08 12:18:34;;;;;;;25.45;23.83;;;;;;;;;;5094326;28;20239;-74
2021/04/08 12:21:09;;;;;;;27.13;25.23;;;;;;;;;;5092994;28;20555;-73
2021/04/08 12:23:37;;;;;;;28.23;26.02;;;;;;;;;;5094509;28;20296;-74
2021/04/08 12:26:04;;;;;;;25.67;24.17;;;;;;;;;;5094445;28;20565;-74
2021/04/08 12:28:31;;;;;;;24.83;23.33;;;;;;;;;;5094142;28;20635;-74
2021/04/08 12:31:02;;;;;;;25.67;24.23;;;;;;;;;;5094055;28;20471;-74
2021/04/08 12:33:30;;;;;;;24.90;23.40;;;;;;;;;;5094053;28;20435;-74
2021/04/08 12:35:57;;;;;;;26.92;25.00;;;;;;;;;;5094030;28;20465;-74
2021/04/08 12:38:24;;;;;;;25.25;23.75;;;;;;;;;;5094364;28;20196;-74
2021/04/08 12:40:51;;;;;;;26.63;24.57;;;;;;;;;;5094244;28;20193;-74
2021/04/08 12:43:18;;;;;;;26.75;24.92;;;;;;;;;;5093945;28;20876;-74
2021/04/08 12:45:45;;;;;;;27.10;25.10;;;;;;;;;;5093913;28;20193;-73
2021/04/08 12:48:14;;;;;;;25.63;23.92;;;;;;;;;;5093561;28;20474;-74
2021/04/08 12:50:41;;;;;;;24.67;23.10;;;;;;;;;;5093891;28;20217;-74
2021/04/08 12:53:08;;;;;;;25.60;23.90;;;;;;;;;;5093583;28;20205;-74
2021/04/08 12:55:35;;;;;;;27.03;25.27;;;;;;;;;;5093633;28;20244;-74
2021/04/08 12:58:02;;;;;;;26.85;24.95;;;;;;;;;;5094003;28;20417;-75
2021/04/08 13:00:29;;;;;;;26.10;24.40;;;;;;;;;;5093654;28;20190;-74
2021/04/08 13:02:56;;;;;;;25.37;23.87;;;;;;;;;;5093744;28;20938;-74
2021/04/08 13:05:25;;;;;;;25.67;24.07;;;;;;;;;;5093881;28;20445;-74
2021/04/08 13:07:52;;;;;;;28.20;26.40;;;;;;;;;;5092902;28;20443;-82
2021/04/08 13:10:19;;;;;;;27.02;25.13;;;;;;;;;;5091965;28;20476;-80
2021/04/08 13:12:46;;;;;;;25.13;23.63;;;;;;;;;;5093457;28;20190;-80
2021/04/08 13:15:13;;;;;;;27.02;25.40;;;;;;;;;;5094090;28;20419;-80
2021/04/08 13:17:41;;;;;;;26.57;24.90;;;;;;;;;;5093801;28;20194;-74
2021/04/08 13:20:08;;;;;;;26.50;24.90;;;;;;;;;;5092397;28;20411;-73
2021/04/08 13:22:37;;;;;;;25.60;24.00;;;;;;;;;;5093639;28;20426;-80
2021/04/08 13:25:04;;;;;;;25.40;23.67;;;;;;;;;;5092509;28;20418;-73
2021/04/08 13:27:31;;;;;;;26.42;24.73;;;;;;;;;;5093475;28;20460;-73
2021/04/08 13:29:58;;;;;;;27.50;25.65;;;;;;;;;;5093549;28;20237;-74
2021/04/08 13:32:26;;;;;;;26.05;24.35;;;;;;;;;;5093386;28;20194;-73
2021/04/08 13:34:54;;;;;;;26.80;25.20;;;;;;;;;;5093395;28;20191;-73
2021/04/08 13:37:21;;;;;;;28.03;26.13;;;;;;;;;;5093627;28;20244;-73
2021/04/08 13:39:49;;;;;;;27.93;26.07;;;;;;;;;;5093199;28;20441;-73
2021/04/08 13:42:15;;;;;;;26.13;24.42;;;;;;;;;;5093570;28;20414;-72
2021/04/08 13:44:42;;;;;;;27.53;25.60;;;;;;;;;;5093203;28;20197;-73
2021/04/08 13:47:09;;;;;;;26.88;25.13;;;;;;;;;;5093148;28;20451;-73
2021/04/08 13:49:37;;;;;;;28.70;27.00;;;;;;;;;;5093437;28;20236;-73
2021/04/08 13:52:04;;;;;;;28.70;26.80;;;;;;;;;;5093433;28;20188;-73
2021/04/08 13:54:31;;;;;;;26.33;24.52;;;;;;;;;;5093009;28;20245;-73
2021/04/08 13:56:59;;;;;;;26.30;24.45;;;;;;;;;;5093244;28;20248;-73
2021/04/08 13:59:25;;;;;;;27.20;25.50;;;;;;;;;;5093163;28;20198;-73
2021/04/08 14:01:52;;;;;;;27.05;25.55;;;;;;;;;;5093021;28;20588;-73
2021/04/08 14:04:19;;;;;;;26.83;25.13;;;;;;;;;;5093909;28;20256;-73
2021/04/08 14:06:46;;;;;;;27.27;25.58;;;;;;;;;;5097235;28;20435;-73
2021/04/08 14:09:13;;;;;;;27.60;25.90;;;;;;;;;;5095845;28;20198;-73
2021/04/08 14:11:42;;;;;;;27.93;26.33;;;;;;;;;;5096974;28;20441;-73
2021/04/08 14:14:10;;;;;;;30.00;27.92;;;;;;;;;;5096961;28;20443;-73
2021/04/08 14:16:37;;;;;;;28.30;26.48;;;;;;;;;;5096605;28;20195;-73
2021/04/08 14:19:06;;;;;;;28.10;26.25;;;;;;;;;;5096925;28;20191;-73
2021/04/08 14:21:33;;;;;;;29.50;27.55;;;;;;;;;;5096508;28;20233;-73